createdAt,value
2019-03-10T00:00:32.383Z,101256.29
2019-03-10T00:03:01.031Z,101251.78
2019-03-10T00:05:29.713Z,101253.98
2019-03-10T00:07:58.508Z,101251.64
2019-03-10T00:10:27.085Z,101239.84
2019-03-10T00:12:55.705Z,101224.72
2019-03-10T00:15:24.373Z,101211.08
2019-03-10T00:17:53.341Z,101211.98
2019-03-10T00:20:21.948Z,101204.91
2019-03-10T00:22:50.533Z,101198.94
2019-03-10T00:25:19.241Z,101202.20
2019-03-10T00:27:47.815Z,101196.69
2019-03-10T00:30:17.817Z,101194.31
2019-03-10T00:32:46.440Z,101198.00
2019-03-10T00:35:15.076Z,101197.02
2019-03-10T00:37:43.708Z,101190.44
2019-03-10T00:40:21.254Z,101197.08
2019-03-10T00:43:15.464Z,101193.12
2019-03-10T00:46:15.571Z,101197.08
2019-03-10T00:49:06.238Z,101192.66
2019-03-10T00:51:56.008Z,101187.54
2019-03-10T00:54:24.647Z,101176.16
2019-03-10T00:56:53.281Z,101176.43
2019-03-10T00:59:22.010Z,101175.45
2019-03-10T01:01:50.605Z,101171.12
2019-03-10T01:04:19.204Z,101174.81
2019-03-10T01:06:47.952Z,101171.45
2019-03-10T01:09:16.644Z,101173.00
2019-03-10T01:11:45.541Z,101173.45
2019-03-10T01:14:14.598Z,101162.47
2019-03-10T01:16:43.459Z,101150.41
2019-03-10T01:19:12.171Z,101147.03
2019-03-10T01:24:10.233Z,101127.71
2019-03-10T01:26:38.818Z,101127.08
2019-03-10T01:29:07.485Z,101128.70
2019-03-10T01:31:51.108Z,101120.14
2019-03-10T01:34:37.525Z,101107.71
2019-03-10T01:37:06.170Z,101093.02
2019-03-10T01:39:34.665Z,101089.45
2019-03-10T01:42:03.215Z,101082.67
2019-03-10T01:44:31.779Z,101068.84
2019-03-10T01:47:00.347Z,101064.17
2019-03-10T01:49:29.035Z,101077.59
2019-03-10T01:51:57.590Z,101064.09
2019-03-10T01:54:26.294Z,101058.97
2019-03-10T01:56:54.864Z,101049.31
2019-03-10T01:59:23.515Z,101043.30
2019-03-10T02:01:52.117Z,101046.28
2019-03-10T02:04:20.602Z,101042.82
2019-03-10T02:06:49.129Z,101038.28
2019-03-10T02:09:17.703Z,101035.02
2019-03-10T02:11:46.219Z,101017.84
2019-03-10T02:14:14.829Z,101011.66
2019-03-10T02:16:43.404Z,101005.14
2019-03-10T02:19:12.033Z,101002.58
2019-03-10T02:21:40.555Z,100989.25
2019-03-10T02:24:09.226Z,100976.73
2019-03-10T02:26:37.780Z,100980.03
2019-03-10T02:29:06.374Z,100967.31
2019-03-10T02:31:35.140Z,100950.38
2019-03-10T02:34:03.770Z,100946.11
2019-03-10T02:36:32.297Z,100943.02
2019-03-10T02:39:01.462Z,100930.50
2019-03-10T02:41:29.946Z,100926.55
2019-03-10T02:43:58.580Z,100918.32
2019-03-10T02:46:27.095Z,100908.17
2019-03-10T02:48:55.669Z,100900.30
2019-03-10T02:51:24.297Z,100890.91
2019-03-10T02:53:52.885Z,100889.02
2019-03-10T02:56:21.381Z,100894.63
2019-03-10T02:58:49.998Z,100875.68
2019-03-10T03:01:18.687Z,100870.67
2019-03-10T03:03:47.334Z,100861.02
2019-03-10T03:06:15.938Z,100859.02
2019-03-10T03:08:44.566Z,100857.75
2019-03-10T03:11:13.385Z,100843.10
2019-03-10T03:13:42.150Z,100845.94
2019-03-10T03:16:10.702Z,100847.73
2019-03-10T03:18:39.311Z,100834.96
2019-03-10T03:21:07.826Z,100823.35
2019-03-10T03:23:36.456Z,100809.36
2019-03-10T03:26:05.058Z,100800.20
2019-03-10T03:28:33.682Z,100799.46
2019-03-10T03:31:02.262Z,100792.86
2019-03-10T03:33:30.820Z,100787.26
2019-03-10T03:36:02.610Z,100782.98
2019-03-10T03:38:46.075Z,100771.45
2019-03-10T03:41:20.315Z,100768.47
2019-03-10T03:43:48.934Z,100764.09
2019-03-10T03:46:17.552Z,100762.84
2019-03-10T03:48:46.059Z,100761.48
2019-03-10T03:51:14.603Z,100742.73
2019-03-10T03:53:43.220Z,100744.33
2019-03-10T03:56:11.803Z,100739.69
2019-03-10T03:58:40.377Z,100727.47
2019-03-10T04:01:10.635Z,100713.89
2019-03-10T04:03:39.213Z,100711.56
2019-03-10T04:06:07.824Z,100708.21
2019-03-10T04:08:36.445Z,100705.73
2019-03-10T04:11:05.017Z,100692.14
2019-03-10T04:13:33.564Z,100686.30
2019-03-10T04:16:02.207Z,100669.31
2019-03-10T04:18:30.660Z,100658.14
2019-03-10T04:20:59.172Z,100659.50
2019-03-10T04:23:27.730Z,100654.17
2019-03-10T04:25:56.339Z,100646.30
2019-03-10T04:28:25.266Z,100635.45
2019-03-10T04:30:53.763Z,100625.20
2019-03-10T04:33:22.245Z,100619.45
2019-03-10T04:35:50.819Z,100615.84
2019-03-10T04:38:19.400Z,100608.70
2019-03-10T04:40:47.964Z,100616.56
2019-03-10T04:43:16.487Z,100612.38
2019-03-10T04:45:45.064Z,100605.58
2019-03-10T04:48:13.553Z,100585.77
2019-03-10T04:50:42.197Z,100583.91
2019-03-10T04:53:10.767Z,100570.95
2019-03-10T04:55:40.934Z,100576.79
2019-03-10T04:58:12.109Z,100564.31
2019-03-10T05:00:42.354Z,100550.89
2019-03-10T05:03:10.891Z,100542.67
2019-03-10T05:05:39.462Z,100539.56
2019-03-10T05:08:08.023Z,100541.70
2019-03-10T05:10:36.553Z,100535.64
2019-03-10T05:13:05.160Z,100527.88
2019-03-10T05:15:33.694Z,100515.84
2019-03-10T05:18:02.229Z,100508.57
2019-03-10T05:20:31.124Z,100500.25
2019-03-10T05:23:25.404Z,100489.50
2019-03-10T05:25:53.974Z,100487.08
2019-03-10T05:28:22.521Z,100478.92
2019-03-10T05:30:51.280Z,100467.56
2019-03-10T05:33:19.892Z,100455.89
2019-03-10T05:35:48.515Z,100451.70
2019-03-10T05:38:17.097Z,100449.75
2019-03-10T05:40:45.656Z,100443.17
2019-03-10T05:43:14.279Z,100432.12
2019-03-10T05:45:42.914Z,100422.84
2019-03-10T05:48:11.579Z,100401.80
2019-03-10T05:50:40.898Z,100397.13
2019-03-10T05:53:09.494Z,100398.09
2019-03-10T05:55:38.562Z,100387.23
2019-03-10T05:58:07.244Z,100376.06
2019-03-10T06:00:42.599Z,100363.80
2019-03-10T06:03:06.302Z,100354.94
2019-03-10T06:05:34.950Z,100342.80
2019-03-10T06:08:03.684Z,100339.98
2019-03-10T06:10:32.301Z,100329.53
2019-03-10T06:13:00.854Z,100324.45
2019-03-10T06:15:29.315Z,100313.58
2019-03-10T06:17:58.652Z,100311.72
2019-03-10T06:20:27.101Z,100307.19
2019-03-10T06:22:55.645Z,100309.45
2019-03-10T06:25:24.345Z,100305.71
2019-03-10T06:27:52.904Z,100311.95
2019-03-10T06:30:24.933Z,100309.48
2019-03-10T06:32:53.455Z,100306.18
2019-03-10T06:35:22.069Z,100294.48
2019-03-10T06:37:51.263Z,100284.26
2019-03-10T06:40:19.852Z,100281.66
2019-03-10T06:42:48.415Z,100280.27
2019-03-10T06:45:16.943Z,100268.75
2019-03-10T06:47:45.552Z,100256.54
2019-03-10T06:50:14.135Z,100257.90
2019-03-10T06:52:42.787Z,100251.94
2019-03-10T06:55:11.419Z,100236.28
2019-03-10T06:57:39.934Z,100224.92
2019-03-10T07:00:11.659Z,100208.78
2019-03-10T07:02:40.159Z,100204.22
2019-03-10T07:05:11.283Z,100197.14
2019-03-10T07:07:39.969Z,100184.22
2019-03-10T07:10:14.187Z,100186.16
2019-03-10T07:12:42.783Z,100172.67
2019-03-10T07:15:13.033Z,100168.81
2019-03-10T07:17:41.683Z,100163.77
2019-03-10T07:20:13.184Z,100156.98
2019-03-10T07:22:41.747Z,100151.53
2019-03-10T07:25:10.666Z,100144.91
2019-03-10T07:27:57.335Z,100145.38
2019-03-10T07:30:42.541Z,100135.77
2019-03-10T07:33:21.715Z,100123.04
2019-03-10T07:35:54.278Z,100119.64
2019-03-10T07:38:24.512Z,100105.81
2019-03-10T07:41:12.728Z,100098.42
2019-03-10T07:43:55.327Z,100101.58
2019-03-10T07:46:25.483Z,100069.22
2019-03-10T07:48:55.743Z,100069.66
2019-03-10T07:51:44.112Z,100074.01
2019-03-10T07:54:14.331Z,100069.22
2019-03-10T07:56:44.570Z,100070.27
2019-03-10T07:59:20.968Z,100055.05
2019-03-10T08:01:57.373Z,100033.78
2019-03-10T08:04:30.712Z,100029.97
2019-03-10T08:07:00.917Z,100017.82
2019-03-10T08:09:33.916Z,100030.87
2019-03-10T08:12:04.118Z,100032.19
2019-03-10T08:14:34.384Z,100037.88
2019-03-10T08:17:19.504Z,100038.52
2019-03-10T08:20:01.483Z,100034.55
2019-03-10T08:22:34.713Z,100020.70
2019-03-10T08:25:07.634Z,100033.78
2019-03-10T08:28:01.172Z,100047.37
2019-03-10T08:30:25.030Z,100037.36
2019-03-10T08:33:04.163Z,100030.39
2019-03-10T08:35:46.468Z,100016.64
2019-03-10T08:38:22.955Z,100005.77
2019-03-10T08:40:55.988Z,99990.30
2019-03-10T08:43:26.087Z,99984.27
2019-03-10T08:45:59.318Z,99987.70
2019-03-10T08:48:29.499Z,99981.82
2019-03-10T08:51:05.643Z,99984.28
2019-03-10T08:53:53.541Z,99971.14
2019-03-10T08:56:23.742Z,99970.09
2019-03-10T08:58:56.634Z,99976.64
2019-03-10T09:01:32.827Z,99936.32
2019-03-10T09:04:09.377Z,99936.32
2019-03-10T09:06:51.382Z,99950.81
2019-03-10T09:09:24.778Z,99949.38
2019-03-10T09:11:54.995Z,99940.95
2019-03-10T09:14:30.939Z,99935.16
2019-03-10T09:17:16.485Z,99922.49
2019-03-10T09:19:46.646Z,99925.55
2019-03-10T09:22:23.198Z,99909.65
2019-03-10T09:24:54.473Z,99902.01
2019-03-10T09:27:24.786Z,99903.31
2019-03-10T09:29:55.176Z,99886.84
2019-03-10T09:32:31.459Z,99874.65
2019-03-10T09:35:10.454Z,99864.91
2019-03-10T09:37:46.541Z,99847.86
2019-03-10T09:40:25.983Z,99852.70
2019-03-10T09:43:04.955Z,99846.36
2019-03-10T09:45:40.939Z,99845.38
2019-03-10T09:48:13.852Z,99839.79
2019-03-10T09:51:00.610Z,99839.05
2019-03-10T09:53:36.808Z,99829.98
2019-03-10T09:56:22.174Z,99826.91
2019-03-10T09:59:08.396Z,99823.23
2019-03-10T10:01:51.651Z,99818.27
2019-03-10T10:04:33.906Z,99815.38
2019-03-10T10:07:04.184Z,99817.98
2019-03-10T10:09:46.113Z,99813.19
2019-03-10T10:12:16.343Z,99810.02
2019-03-10T10:14:52.633Z,99805.14
2019-03-10T10:17:28.575Z,99804.05
2019-03-10T10:19:58.658Z,99793.09
2019-03-10T10:22:31.947Z,99795.83
2019-03-10T10:25:08.062Z,99792.00
2019-03-10T10:27:43.223Z,99779.97
2019-03-10T10:30:14.573Z,99775.07
2019-03-10T10:32:44.843Z,99766.86
2019-03-10T10:35:24.197Z,99754.71
2019-03-10T10:38:18.291Z,99766.06
2019-03-10T10:40:45.319Z,99755.16
2019-03-10T10:43:15.568Z,99751.73
2019-03-10T10:45:54.868Z,99745.70
2019-03-10T10:48:27.804Z,99740.72
2019-03-10T10:51:02.589Z,99735.56
2019-03-10T10:53:38.351Z,99729.16
2019-03-10T10:56:20.561Z,99720.45
2019-03-10T10:58:53.896Z,99717.23
2019-03-10T11:01:30.172Z,99711.99
2019-03-10T11:04:16.677Z,99702.98
2019-03-10T11:06:52.608Z,99730.75
2019-03-10T11:09:25.883Z,99707.52
2019-03-10T11:11:56.214Z,99700.77
2019-03-10T11:14:26.489Z,99711.73
2019-03-10T11:17:13.265Z,99708.38
2019-03-10T11:20:01.772Z,99703.02
2019-03-10T11:22:35.017Z,99700.81
2019-03-10T11:25:07.597Z,99691.45
2019-03-10T11:27:37.817Z,99685.75
2019-03-10T11:30:17.489Z,99684.38
2019-03-10T11:32:56.922Z,99697.22
2019-03-10T11:35:35.937Z,99736.45
2019-03-10T11:38:15.249Z,99718.09
2019-03-10T11:41:01.099Z,99747.05
2019-03-10T11:43:37.320Z,99746.50
2019-03-10T11:46:30.293Z,99727.66
2019-03-10T11:49:00.642Z,99724.99
2019-03-10T11:51:30.871Z,99724.72
2019-03-10T11:54:01.022Z,99725.14
2019-03-10T11:56:48.014Z,99710.19
2019-03-10T11:59:18.162Z,99718.67
2019-03-10T12:01:48.444Z,99719.26
2019-03-10T12:04:30.252Z,99722.22
2019-03-10T12:07:06.313Z,99713.36
2019-03-10T12:09:35.077Z,99711.45
2019-03-10T12:12:03.704Z,99727.30
2019-03-10T12:14:32.198Z,99742.81
2019-03-10T12:17:00.820Z,99745.39
2019-03-10T12:19:29.398Z,99734.54
2019-03-10T12:21:57.971Z,99733.30
2019-03-10T12:24:26.587Z,99720.98
2019-03-10T12:26:55.208Z,99720.86
2019-03-10T12:29:24.400Z,99729.66
2019-03-10T12:31:54.775Z,99726.95
2019-03-10T12:34:23.820Z,99737.94
2019-03-10T12:36:52.450Z,99716.88
2019-03-10T12:39:21.116Z,99726.34
2019-03-10T12:41:58.070Z,99719.77
2019-03-10T12:44:20.032Z,99712.33
2019-03-10T12:46:48.579Z,99747.95
2019-03-10T12:49:17.129Z,99726.98
2019-03-10T12:51:45.782Z,99730.38
2019-03-10T12:54:14.473Z,99732.69
2019-03-10T12:56:43.177Z,99726.08
2019-03-10T12:59:11.853Z,99746.50
2019-03-10T13:01:40.663Z,99738.37
2019-03-10T13:04:09.275Z,99734.08
2019-03-10T13:06:37.933Z,99737.84
2019-03-10T13:09:07.919Z,99747.20
2019-03-10T13:11:36.428Z,99732.05
2019-03-10T13:14:05.036Z,99757.15
2019-03-10T13:16:33.538Z,99755.12
2019-03-10T13:19:02.127Z,99740.64
2019-03-10T13:21:30.841Z,99750.93
2019-03-10T13:23:59.409Z,99751.36
2019-03-10T13:26:28.054Z,99767.09
2019-03-10T13:28:56.693Z,99766.17
2019-03-10T13:31:25.338Z,99772.75
2019-03-10T13:33:53.961Z,99790.30
2019-03-10T13:36:22.567Z,99786.10
2019-03-10T13:38:51.180Z,99785.61
2019-03-10T13:41:19.826Z,99813.64
2019-03-10T13:43:48.431Z,99812.69
2019-03-10T13:46:16.940Z,99821.56
2019-03-10T13:48:45.580Z,99811.97
2019-03-10T13:51:14.109Z,99838.80
2019-03-10T13:53:42.699Z,99888.03
2019-03-10T13:56:11.387Z,99882.10
2019-03-10T13:58:39.941Z,99889.21
2019-03-10T14:01:08.580Z,99882.25
2019-03-10T14:03:37.445Z,99894.34
2019-03-10T14:06:06.110Z,99888.05
2019-03-10T14:08:34.989Z,99899.13
2019-03-10T14:11:03.826Z,99919.44
2019-03-10T14:13:32.532Z,99940.29
2019-03-10T14:16:01.041Z,99946.05
2019-03-10T14:18:29.681Z,99956.52
2019-03-10T14:20:58.752Z,99968.13
2019-03-10T14:23:27.305Z,99978.14
2019-03-10T14:25:56.034Z,99987.98
2019-03-10T14:28:24.610Z,99995.95
2019-03-10T14:30:53.267Z,100027.09
2019-03-10T14:33:21.963Z,100010.52
2019-03-10T14:35:50.565Z,100014.98
2019-03-10T14:38:19.162Z,99948.42
2019-03-10T14:40:47.803Z,100026.77
2019-03-10T14:43:16.523Z,100002.20
2019-03-10T14:45:45.125Z,100023.82
2019-03-10T14:48:13.859Z,100026.63
2019-03-10T14:50:42.423Z,100051.37
2019-03-10T14:53:11.296Z,100036.41
2019-03-10T14:55:40.063Z,100058.52
2019-03-10T14:58:08.808Z,100073.45
2019-03-10T15:00:37.445Z,100081.51
2019-03-10T15:03:06.914Z,100065.56
2019-03-10T15:05:35.530Z,100098.05
2019-03-10T15:08:04.131Z,100115.07
2019-03-10T15:10:32.742Z,100117.39
2019-03-10T15:13:01.573Z,100098.04
2019-03-10T15:15:30.107Z,100126.62
2019-03-10T15:17:58.736Z,100156.07
2019-03-10T15:20:27.334Z,100158.15
2019-03-10T15:22:55.889Z,100174.38
2019-03-10T15:25:25.433Z,100173.83
2019-03-10T15:27:54.219Z,100207.52
2019-03-10T15:30:24.211Z,100215.28
2019-03-10T15:32:52.890Z,100195.77
2019-03-10T15:35:21.498Z,100233.84
2019-03-10T15:37:50.119Z,100236.34
2019-03-10T15:40:19.339Z,100242.28
2019-03-10T15:42:47.941Z,100249.41
2019-03-10T15:45:17.387Z,100288.45
2019-03-10T15:47:45.969Z,100303.48
2019-03-10T15:50:31.395Z,100313.62
2019-03-10T15:53:00.046Z,100325.23
2019-03-10T15:55:28.675Z,100344.28
2019-03-10T15:57:57.287Z,100357.83
2019-03-10T16:00:27.271Z,100374.51
2019-03-10T16:02:55.842Z,100393.94
2019-03-10T16:05:24.483Z,100405.96
2019-03-10T16:07:53.091Z,100426.52
2019-03-10T16:10:21.762Z,100465.27
2019-03-10T16:12:50.457Z,100492.05
2019-03-10T16:15:24.127Z,100482.34
2019-03-10T16:17:52.726Z,100500.11
2019-03-10T16:20:21.297Z,100518.91
2019-03-10T16:22:49.887Z,100546.92
2019-03-10T16:25:19.171Z,100574.22
2019-03-10T16:27:49.770Z,100574.83
2019-03-10T16:30:28.049Z,100587.64
2019-03-10T16:32:56.665Z,100590.49
2019-03-10T16:35:25.323Z,100622.00
2019-03-10T16:37:54.040Z,100634.99
2019-03-10T16:40:23.043Z,100644.58
2019-03-10T16:42:51.629Z,100649.61
2019-03-10T16:45:22.313Z,100673.61
2019-03-10T16:47:50.890Z,100688.70
2019-03-10T16:50:22.378Z,100691.64
2019-03-10T16:52:51.011Z,100716.76
2019-03-10T16:55:19.660Z,100707.42
2019-03-10T16:57:48.291Z,100730.67
2019-03-10T17:00:19.665Z,100733.70
2019-03-10T17:02:48.481Z,100747.77
2019-03-10T17:05:18.302Z,100762.13
2019-03-10T17:07:46.916Z,100777.20
2019-03-10T17:10:25.875Z,100767.95
2019-03-10T17:12:54.467Z,100761.70
2019-03-10T17:15:24.179Z,100772.25
2019-03-10T17:17:52.982Z,100783.41
2019-03-10T17:20:21.872Z,100787.37
2019-03-10T17:22:50.638Z,100792.28
2019-03-10T17:25:19.278Z,100792.44
2019-03-10T17:27:47.886Z,100804.05
2019-03-10T17:30:21.207Z,100811.26
2019-03-10T17:32:50.649Z,100808.82
2019-03-10T17:35:20.053Z,100815.05
2019-03-10T17:37:49.547Z,100809.98
2019-03-10T17:40:25.651Z,100822.80
2019-03-10T17:42:54.544Z,100830.16
2019-03-10T17:45:27.288Z,100833.92
2019-03-10T17:47:55.879Z,100837.03
2019-03-10T17:50:24.551Z,100837.23
2019-03-10T17:52:53.199Z,100837.63
2019-03-10T17:55:22.779Z,100852.31
2019-03-10T17:57:51.392Z,100853.70
2019-03-10T18:00:22.426Z,100863.78
2019-03-10T18:02:50.997Z,100861.52
2019-03-10T18:05:19.694Z,100860.14
2019-03-10T18:07:48.242Z,100863.23
2019-03-10T18:10:17.934Z,100868.02
2019-03-10T18:12:46.978Z,100877.77
2019-03-10T18:15:17.742Z,100884.87
2019-03-10T18:17:46.744Z,100894.67
2019-03-10T18:20:24.816Z,100907.53
2019-03-10T18:22:53.393Z,100914.91
2019-03-10T18:25:21.984Z,100912.16
2019-03-10T18:27:50.585Z,100946.51
2019-03-10T18:30:27.191Z,100936.09
2019-03-10T18:32:55.728Z,100946.92
2019-03-10T18:35:24.442Z,100946.42
2019-03-10T18:37:53.212Z,100957.22
2019-03-10T18:40:28.503Z,100950.18
2019-03-10T18:42:57.145Z,100958.02
2019-03-10T18:45:25.736Z,100954.27
2019-03-10T18:47:54.356Z,100977.42
2019-03-10T18:50:24.434Z,100981.75
2019-03-10T18:52:53.098Z,100986.02
2019-03-10T18:55:21.856Z,100996.63
2019-03-10T18:57:50.452Z,101004.45
2019-03-10T19:00:26.709Z,101014.22
2019-03-10T19:02:55.894Z,101021.59
2019-03-10T19:05:24.573Z,101036.20
2019-03-10T19:07:53.189Z,101041.09
2019-03-10T19:10:21.814Z,101047.32
2019-03-10T19:12:50.422Z,101048.93
2019-03-10T19:15:21.090Z,101057.27
2019-03-10T19:17:49.725Z,101069.64
2019-03-10T19:20:18.317Z,101075.55
2019-03-10T19:22:46.926Z,101086.58
2019-03-10T19:25:16.510Z,101090.09
2019-03-10T19:27:45.433Z,101103.80
2019-03-10T19:30:18.999Z,101109.70
2019-03-10T19:32:47.830Z,101116.70
2019-03-10T19:35:16.482Z,101126.14
2019-03-10T19:37:45.203Z,101136.10
2019-03-10T19:40:16.131Z,101140.41
2019-03-10T19:42:44.672Z,101137.97
2019-03-10T19:45:15.934Z,101139.33
2019-03-10T19:47:44.567Z,101137.72
2019-03-10T19:50:15.686Z,101141.22
2019-03-10T19:52:44.251Z,101144.16
2019-03-10T19:55:15.830Z,101143.91
2019-03-10T19:57:44.430Z,101151.44
2019-03-10T20:00:22.863Z,101156.27
2019-03-10T20:02:51.528Z,101158.97
2019-03-10T20:05:20.055Z,101181.80
2019-03-10T20:07:48.691Z,101184.23
2019-03-10T20:10:21.591Z,101221.44
2019-03-10T20:12:50.272Z,101225.17
2019-03-10T20:15:20.706Z,101229.09
2019-03-10T20:17:49.639Z,101219.00
2019-03-10T20:20:20.274Z,101177.22
2019-03-10T20:22:48.890Z,101166.74
2019-03-10T20:25:17.472Z,101181.85
2019-03-10T20:27:46.025Z,101172.45
2019-03-10T20:30:24.992Z,101176.78
2019-03-10T20:32:53.579Z,101179.77
2019-03-10T20:35:22.139Z,101173.22
2019-03-10T20:37:51.021Z,101174.56
2019-03-10T20:40:24.100Z,101181.91
2019-03-10T20:42:52.680Z,101176.10
2019-03-10T20:45:24.168Z,101180.11
2019-03-10T20:47:52.556Z,101185.38
2019-03-10T20:50:21.666Z,101199.55
2019-03-10T20:52:50.176Z,101210.75
2019-03-10T20:55:18.937Z,101214.16
2019-03-10T20:57:47.586Z,101196.42
2019-03-10T21:00:24.321Z,101196.65
2019-03-10T21:02:53.060Z,101204.34
2019-03-10T21:05:21.656Z,101198.44
2019-03-10T21:07:50.245Z,101197.90
2019-03-10T21:10:23.823Z,101205.19
2019-03-10T21:12:52.402Z,101210.25
2019-03-10T21:15:25.867Z,101225.06
2019-03-10T21:17:53.594Z,101213.48
2019-03-10T21:20:24.112Z,101209.98
2019-03-10T21:22:52.715Z,101207.13
2019-03-10T21:25:31.892Z,101208.89
2019-03-10T21:28:00.481Z,101209.91
2019-03-10T21:30:33.496Z,101209.91
2019-03-10T21:33:02.042Z,101213.78
2019-03-10T21:35:33.157Z,101218.81
2019-03-10T21:38:00.956Z,101211.88
2019-03-10T21:40:31.526Z,101211.91
2019-03-10T21:43:00.106Z,101222.84
2019-03-10T21:45:28.746Z,101229.23
2019-03-10T21:47:57.336Z,101225.06
2019-03-10T21:50:26.074Z,101241.69
2019-03-10T21:52:54.779Z,101228.33
2019-03-10T21:55:23.405Z,101225.92
2019-03-10T21:57:52.055Z,101235.01
2019-03-10T22:00:23.581Z,101229.55
2019-03-10T22:02:52.204Z,101228.52
2019-03-10T22:05:21.228Z,101221.22
2019-03-10T22:07:49.819Z,101222.84
2019-03-10T22:10:27.348Z,101219.70
2019-03-10T22:12:52.760Z,101223.72
2019-03-10T22:15:21.845Z,101235.81
2019-03-10T22:17:50.496Z,101228.64
2019-03-10T22:20:19.875Z,101227.60
2019-03-10T22:22:49.890Z,101217.45
2019-03-10T22:25:19.046Z,101220.44
2019-03-10T22:27:47.713Z,101225.87
2019-03-10T22:30:22.049Z,101222.41
2019-03-10T22:32:50.650Z,101222.88
2019-03-10T22:35:19.269Z,101224.41
2019-03-10T22:37:47.860Z,101219.20
2019-03-10T22:40:17.684Z,101222.42
2019-03-10T22:42:46.480Z,101225.64
2019-03-10T22:45:19.024Z,101228.14
2019-03-10T22:47:47.730Z,101226.26
2019-03-10T22:50:16.937Z,101222.80
2019-03-10T22:52:45.952Z,101228.74
2019-03-10T22:55:15.652Z,101218.58
2019-03-10T22:57:44.441Z,101216.97
2019-03-10T23:00:25.481Z,101208.63
2019-03-10T23:02:54.123Z,101200.61
2019-03-10T23:05:23.108Z,101193.91
2019-03-10T23:07:51.686Z,101195.28
2019-03-10T23:10:20.898Z,101180.22
2019-03-10T23:12:49.474Z,101178.03
2019-03-10T23:15:18.082Z,101186.89
2019-03-10T23:17:46.664Z,101183.91
2019-03-10T23:20:16.303Z,101194.69
2019-03-10T23:22:44.940Z,101187.45
2019-03-10T23:25:13.724Z,101184.80
2019-03-10T23:27:42.568Z,101198.25
2019-03-10T23:30:18.322Z,101197.44
2019-03-10T23:32:46.934Z,101211.72
2019-03-10T23:35:15.511Z,101200.66
2019-03-10T23:37:44.069Z,101199.33
2019-03-10T23:40:16.514Z,101188.86
2019-03-10T23:42:45.113Z,101174.30
2019-03-10T23:45:17.335Z,101162.97
2019-03-10T23:47:46.039Z,101165.30
2019-03-10T23:50:17.660Z,101153.94
2019-03-10T23:52:46.363Z,101157.22
2019-03-10T23:55:15.039Z,101147.31
2019-03-10T23:57:43.646Z,101130.14
